This is the latest recevied weather packets stored in our database for station/object K4DFD-13. If no packets are shown the sender has not sent any weather packets the latest 10 day(s).
| Time | Temp. | Humidity | Pressure | Rain* | Wind** | Luminosity | Snow |
|---|---|---|---|---|---|---|---|
| 1777235033 | 17.22° C | 77% | 1016.3 hPa | 0 mm | - | - | - |
| 1777234733 | 17.78° C | 76% | 1016.3 hPa | 0 mm | - | - | - |
| 1777234432 | 17.78° C | 75% | 1016.3 hPa | 0 mm | - | - | - |
| 1777234132 | 17.78° C | 76% | 1016.3 hPa | 0 mm | - | - | - |
| 1777233832 | 17.78° C | 76% | 1016.2 hPa | 0 mm | - | - | - |
| 1777233531 | 18.33° C | 74% | 1016.2 hPa | 0 mm | - | - | - |
| 1777233231 | 18.33° C | 75% | 1016.2 hPa | 0 mm | - | - | - |
| 1777232931 | 18.33° C | 74% | 1016.1 hPa | 0 mm | - | - | - |
| 1777232630 | 18.33° C | 74% | 1016.2 hPa | 0 mm | - | - | - |
| 1777232330 | 18.89° C | 72% | 1016 hPa | 0 mm | - | - | - |
| 1777232029 | 19.44° C | 72% | 1016 hPa | 0 mm | - | - | - |
| 1777231729 | 19.44° C | 72% | 1016.2 hPa | 0 mm | - | - | - |
| 1777231429 | 20° C | 71% | 1015.8 hPa | 0 mm | - | - | - |
| 1777231128 | 20.56° C | 70% | 1016.2 hPa | 0 mm | - | - | - |
| 1777230828 | 20.56° C | 68% | 1015.8 hPa | 0 mm | - | - | - |
| 1777230528 | 21.11° C | 67% | 1015.8 hPa | 0 mm | - | - | - |
| 1777230227 | 21.67° C | 61% | 1015.6 hPa | 0 mm | - | - | - |
| 1777229927 | 21.67° C | 59% | 1015.6 hPa | 0 mm | - | - | - |
| 1777229626 | 21.11° C | 62% | 1015.6 hPa | 0 mm | - | - | - |
| 1777229326 | 21.11° C | 60% | 1015.6 hPa | 0 mm | - | - | - |
| 1777229025 | 20.56° C | 63% | 1015.7 hPa | 0 mm | - | - | - |
| 1777228725 | 21.11° C | 63% | 1016.3 hPa | 0 mm | - | - | - |
| 1777228425 | 21.67° C | 58% | 1016 hPa | 0 mm | - | - | - |
| 1777228124 | 21.67° C | 56% | 1015.7 hPa | 0 mm | - | - | - |
| 1777227824 | 21.11° C | 60% | 1015.8 hPa | 0 mm | - | - | - |
* Rain latest hour (hover to see other rain measurements)
** Current wind speed in m/s (hover to see current wind gust speed)